Time;durP1;ratioP1;P1;durP2;ratioP2;P2;SDS_P1;SDS_P2;PMS_P1;PMS_P2;Temp;Humidity;BMP_temperature;BMP_pressure;BME280_temperature;BME280_humidity;BME280_pressure;Samples;Min_cycle;Max_cycle;Signal;HPM_P1;HPM_P2
2022/09/21 00:00:35;;;;;;;;;4.67;3.67;;;;;15.10;100.00;102258.22;5034937;28;58647;-72
2022/09/21 00:03:01;;;;;;;;;3.00;3.00;;;;;15.13;100.00;102264.50;5035528;28;45344;-72
2022/09/21 00:05:26;;;;;;;;;5.67;4.67;;;;;15.13;100.00;102261.81;5034831;28;66041;-72
2022/09/21 00:07:51;;;;;;;;;6.00;4.00;;;;;15.13;100.00;102256.50;5035546;28;45400;-71
2022/09/21 00:10:19;;;;;;;;;3.00;3.00;;;;;15.13;100.00;102256.50;5035535;28;55562;-72
2022/09/21 00:12:47;;;;;;;;;5.00;3.67;;;;;15.15;100.00;102253.84;5035855;28;45487;-72
2022/09/21 00:15:13;;;;;;;;;5.67;4.00;;;;;15.11;100.00;102250.25;5036237;28;47841;-72
2022/09/21 00:17:39;;;;;;;;;6.00;5.00;;;;;15.13;100.00;102258.28;5018086;28;45587;-71
2022/09/21 00:20:05;;;;;;;;;3.00;3.00;;;;;15.12;100.00;102256.47;5034251;28;53939;-72
2022/09/21 00:22:33;;;;;;;;;3.67;3.67;;;;;15.11;100.00;102257.34;5035542;28;45490;-72
2022/09/21 00:25:02;;;;;;;;;2.33;2.33;;;;;15.09;100.00;102254.66;5036117;28;47147;-72
2022/09/21 00:27:28;;;;;;;;;4.00;3.00;;;;;15.09;100.00;102259.97;5038903;28;45448;-71
2022/09/21 00:30:00;;;;;;;;;4.33;3.00;;;;;15.07;100.00;102252.84;5038908;28;45429;-72
2022/09/21 00:32:25;;;;;;;;;3.33;3.33;;;;;15.08;100.00;102260.84;5039480;28;45230;-72
2022/09/21 00:34:51;;;;;;;;;3.00;3.00;;;;;15.06;100.00;102262.56;5017838;28;45869;-72
2022/09/21 00:37:20;;;;;;;;;2.00;2.00;;;;;15.05;100.00;102258.13;5038365;28;45245;-74
2022/09/21 00:39:45;;;;;;;;;3.00;3.00;;;;;15.06;100.00;102267.91;5018323;28;45342;-72
2022/09/21 00:42:19;;;;;;;;;3.67;3.00;;;;;15.00;100.00;102262.50;5036836;28;45253;-73
2022/09/21 00:44:45;;;;;;;;;4.00;3.00;;;;;15.00;100.00;102267.81;5039132;28;46205;-71
2022/09/21 00:47:13;;;;;;;;;3.00;3.00;;;;;14.98;100.00;102266.00;5020651;28;45397;-72
2022/09/21 00:49:40;;;;;;;;;3.00;3.00;;;;;14.94;100.00;102265.06;5018120;28;45228;-72
2022/09/21 00:52:06;;;;;;;;;2.00;1.67;;;;;14.89;100.00;102264.97;5033404;28;45486;-73
2022/09/21 00:54:37;;;;;;;;;4.00;3.00;;;;;14.86;100.00;102267.59;5020732;28;46288;-73
2022/09/21 00:57:03;;;;;;;;;3.00;3.00;;;;;14.86;100.00;102274.66;5038850;28;45293;-72
2022/09/21 00:59:31;;;;;;;;;14.33;11.33;;;;;14.83;100.00;102270.19;5021032;28;45235;-72
2022/09/21 01:01:57;;;;;;;;;7.33;7.33;;;;;14.78;100.00;102263.03;5037020;28;45313;-74
2022/09/21 01:04:23;;;;;;;;;10.33;10.33;;;;;14.81;100.00;102271.06;5038698;28;45896;-71
2022/09/21 01:06:49;;;;;;;;;11.00;9.67;;;;;14.79;100.00;102267.47;5037826;28;60997;-72
2022/09/21 01:09:15;;;;;;;;;14.00;11.00;;;;;14.74;100.00;102267.38;5020313;28;45516;-72
2022/09/21 01:12:07;;;;;;;;;12.25;12.25;;;;;14.76;100.00;102270.97;5038326;28;45361;-71
2022/09/21 01:15:10;;;;;;;;;12.33;12.33;;;;;14.76;100.00;102276.31;5020448;28;45514;-73
2022/09/21 01:17:43;;;;;;;;;19.00;14.00;;;;;14.75;100.00;102265.63;5035595;28;45316;-74
2022/09/21 01:20:33;;;;;;;;;13.25;13.25;;;;;14.80;100.00;102275.47;5020194;28;45615;-73
2022/09/21 01:23:08;;;;;;;;;16.00;12.33;;;;;14.80;100.00;102270.13;5037988;28;45364;-72
2022/09/21 01:25:33;;;;;;;;;9.00;9.00;;;;;14.80;100.00;102270.13;5026951;28;46212;-71
2022/09/21 01:28:28;;;;;;;;;13.00;11.50;;;;;14.77;100.00;102274.53;5037769;28;45436;-73
2022/09/21 01:30:56;;;;;;;;;16.50;13.75;;;;;14.70;100.00;102261.97;5038011;28;45414;-73
2022/09/21 01:33:29;;;;;;;;;11.75;10.50;;;;;14.66;100.00;102267.28;5037981;28;45276;-72
2022/09/21 01:36:06;;;;;;;;;15.00;12.75;;;;;14.66;100.00;102266.38;5015677;28;45647;-72
2022/09/21 01:38:37;;;;;;;;;13.25;11.50;;;;;14.61;100.00;102266.28;5025932;28;45455;-73
2022/09/21 01:41:05;;;;;;;;;13.67;9.00;;;;;14.60;100.00;102267.16;5020216;28;45277;-72
2022/09/21 01:43:40;;;;;;;;;10.50;10.50;;;;;14.57;100.00;102266.22;5038377;28;45246;-73
2022/09/21 01:46:12;;;;;;;;;15.50;12.50;;;;;14.55;100.00;102268.84;5022035;28;46685;-72
2022/09/21 01:48:40;;;;;;;;;10.67;9.00;;;;;14.52;100.00;102274.09;5017350;28;45592;-72
2022/09/21 01:51:09;;;;;;;;;16.00;13.00;;;;;14.46;100.00;102267.75;5010236;28;45393;-74
2022/09/21 01:53:48;;;;;;;;;13.67;10.00;;;;;14.46;100.00;102273.97;5006470;28;45537;-72
2022/09/21 01:56:26;;;;;;;;;15.00;13.00;;;;;14.44;100.00;102274.81;5016533;28;46701;-72
2022/09/21 01:59:15;;;;;;;;;14.00;11.50;;;;;14.41;100.00;102272.97;5031612;28;45486;-72
2022/09/21 02:01:53;;;;;;;;;13.33;11.00;;;;;14.39;100.00;102272.97;5020217;28;45543;-74
2022/09/21 02:04:19;;;;;;;;;11.00;9.33;;;;;14.40;100.00;102276.50;5037905;28;45316;-73
2022/09/21 02:06:46;;;;;;;;;12.00;12.00;;;;;14.39;100.00;102269.41;5036049;28;46707;-71
2022/09/21 02:09:12;;;;;;;;;13.00;11.33;;;;;14.44;100.00;102278.34;5018685;28;45336;-72
2022/09/21 02:11:41;;;;;;;;;9.00;9.00;;;;;14.42;100.00;102264.13;5036917;28;62632;-72
2022/09/21 02:14:09;;;;;;;;;11.50;11.50;;;;;14.41;100.00;102267.66;5037083;28;45341;-75
2022/09/21 02:16:43;;;;;;;;;11.50;9.00;;;;;14.35;100.00;102257.81;5033113;28;45660;-75
2022/09/21 02:19:40;;;;;;;;;9.00;8.00;;;;;14.38;100.00;102264.94;5012586;28;45451;-74
2022/09/21 02:22:11;;;;;;;;;10.75;8.00;;;;;14.33;100.00;102266.66;4993450;28;45211;-72
2022/09/21 02:24:46;;;;;;;;;14.75;11.75;;;;;14.28;100.00;102271.88;5036955;28;45365;-72
2022/09/21 02:27:24;;;;;;;;;11.00;11.00;;;;;14.27;100.00;102277.13;4994075;28;46805;-72
2022/09/21 02:30:07;;;;;;;;;8.75;8.75;;;;;14.20;100.00;102265.50;5033727;28;45507;-73
2022/09/21 02:33:11;;;;;;;;;12.75;11.00;;;;;14.18;100.00;102266.34;5031942;28;45384;-75
2022/09/21 02:35:47;;;;;;;;;11.33;8.67;;;;;14.09;100.00;102259.97;5034595;28;45499;-72
2022/09/21 02:38:25;;;;;;;;;9.00;8.75;;;;;14.08;100.00;102259.97;5036585;28;47063;-72
2022/09/21 02:40:51;;;;;;;;;10.33;8.00;;;;;14.04;100.00;102261.66;5019706;28;45480;-72
2022/09/21 02:43:31;;;;;;;;;10.67;7.67;;;;;14.01;100.00;102261.59;5037044;28;45161;-72
2022/09/21 02:46:03;;;;;;;;;11.75;7.25;;;;;13.97;100.00;102265.06;5015472;28;45478;-73
2022/09/21 02:48:40;;;;;;;;;10.00;8.00;;;;;13.93;100.00;102260.53;5019128;28;46727;-74
2022/09/21 02:51:12;;;;;;;;;11.00;9.75;;;;;13.91;100.00;102253.44;5019312;28;45494;-73
2022/09/21 02:53:40;;;;;;;;;11.25;8.25;;;;;13.87;100.00;102260.41;5035378;28;45459;-74
2022/09/21 02:56:06;;;;;;;;;12.25;10.25;;;;;13.84;100.00;102257.69;5010097;28;45595;-71
2022/09/21 02:58:39;;;;;;;;;11.00;10.00;;;;;13.82;100.00;102256.78;5013376;28;47385;-71
2022/09/21 03:01:07;;;;;;;;;12.75;11.00;;;;;13.79;100.00;102257.59;5018841;28;45501;-72
2022/09/21 03:03:33;;;;;;;;;15.50;8.50;;;;;13.75;100.00;102255.75;5037028;28;45480;-70
2022/09/21 03:06:00;;;;;;;;;10.75;8.00;;;;;13.75;100.00;102253.09;5036790;28;45947;-73
2022/09/21 03:08:25;;;;;;;;;14.00;11.25;;;;;13.75;100.00;102254.88;5022435;28;46657;-71
2022/09/21 03:10:51;;;;;;;;;11.00;10.50;;;;;13.74;100.00;102259.28;5036149;28;62902;-72
2022/09/21 03:13:17;;;;;;;;;11.25;10.25;;;;;13.72;100.00;102260.09;5037018;28;45511;-75
2022/09/21 03:15:44;;;;;;;;;12.25;9.75;;;;;13.70;100.00;102260.06;5019060;28;45223;-71
2022/09/21 03:18:10;;;;;;;;;8.00;8.00;;;;;13.68;100.00;102260.91;5036620;28;46482;-73
2022/09/21 03:20:36;;;;;;;;;8.50;7.25;;;;;13.65;100.00;102260.84;5036063;28;45327;-73
2022/09/21 03:23:02;;;;;;;;;12.50;9.25;;;;;13.68;100.00;102263.53;5035213;28;45255;-73
2022/09/21 03:25:29;;;;;;;;;9.50;9.50;;;;;13.62;100.00;102254.59;5004353;28;60743;-72
2022/09/21 03:27:55;;;;;;;;;11.00;10.75;;;;;13.60;100.00;102258.97;5020942;28;46909;-72
2022/09/21 03:30:22;;;;;;;;;10.25;10.00;;;;;13.62;100.00;102259.00;5031902;28;45494;-72
2022/09/21 03:32:52;;;;;;;;;13.25;10.25;;;;;13.54;100.00;102248.25;5016497;28;45206;-74
2022/09/21 03:35:18;;;;;;;;;9.75;9.75;;;;;13.54;100.00;102258.84;5013727;28;45551;-72
2022/09/21 03:37:44;;;;;;;;;12.00;8.50;;;;;13.53;100.00;102259.72;5000202;28;45495;-72
2022/09/21 03:40:11;;;;;;;;;11.00;8.25;;;;;13.49;100.00;102257.84;5015061;28;45500;-72
2022/09/21 03:42:36;;;;;;;;;11.75;10.75;;;;;13.51;100.00;102269.38;4998050;28;45362;-72
2022/09/21 03:45:02;;;;;;;;;14.25;12.75;;;;;13.48;100.00;102261.38;5013844;28;45128;-72
2022/09/21 03:47:28;;;;;;;;;7.75;7.25;;;;;13.49;100.00;102265.81;5016109;28;47176;-73
2022/09/21 03:49:53;;;;;;;;;12.25;11.25;;;;;13.48;100.00;102261.38;5011711;28;45427;-72
2022/09/21 03:52:18;;;;;;;;;12.25;10.75;;;;;13.46;100.00;102254.22;5014244;28;58210;-73
2022/09/21 03:54:44;;;;;;;;;13.75;9.50;;;;;13.46;100.00;102257.78;5015781;28;52421;-72
2022/09/21 03:57:09;;;;;;;;;10.75;10.00;;;;;13.43;100.00;102257.72;5015171;28;67713;-74
2022/09/21 03:59:34;;;;;;;;;11.25;11.25;;;;;13.43;100.00;102263.03;5014923;28;61704;-72
2022/09/21 04:02:00;;;;;;;;;11.00;10.25;;;;;13.40;100.00;102251.44;5015894;28;45239;-72
2022/09/21 04:04:25;;;;;;;;;11.00;9.00;;;;;13.36;100.00;102254.03;5015883;28;45329;-72
2022/09/21 04:06:50;;;;;;;;;9.50;9.50;;;;;13.36;100.00;102261.09;5015311;28;63406;-74
2022/09/21 04:09:16;;;;;;;;;13.00;9.50;;;;;13.32;100.00;102253.94;5014674;28;59303;-72
2022/09/21 04:11:44;;;;;;;;;11.00;8.25;;;;;13.29;100.00;102256.50;4996779;28;45479;-72
2022/09/21 04:14:10;;;;;;;;;11.00;11.00;;;;;13.29;100.00;102251.22;5016366;28;45411;-73
2022/09/21 04:16:36;;;;;;;;;12.25;11.00;;;;;13.29;100.00;102248.56;5015714;28;47666;-73
2022/09/21 04:19:01;;;;;;;;;11.25;7.75;;;;;13.27;100.00;102256.50;5015569;28;55427;-72
2022/09/21 04:21:27;;;;;;;;;12.50;8.25;;;;;13.28;100.00;102252.06;5015438;28;58654;-72
2022/09/21 04:23:52;;;;;;;;;8.50;8.50;;;;;13.27;100.00;102250.28;5003201;28;45446;-73
2022/09/21 04:26:21;;;;;;;;;12.75;9.25;;;;;13.27;100.00;102255.59;5008482;28;45677;-75
2022/09/21 04:28:47;;;;;;;;;11.75;9.50;;;;;13.25;100.00;102257.28;5015235;28;45269;-72
2022/09/21 04:31:12;;;;;;;;;9.25;9.25;;;;;13.19;100.00;102247.41;5035289;28;45356;-72
2022/09/21 04:33:38;;;;;;;;;9.50;9.50;;;;;13.20;100.00;102256.25;5034935;28;48466;-72
2022/09/21 04:36:04;;;;;;;;;11.25;8.75;;;;;13.19;100.00;102254.47;5035236;28;46638;-72
2022/09/21 04:38:30;;;;;;;;;9.00;8.50;;;;;13.16;100.00;102251.78;5015976;28;45589;-73
2022/09/21 04:40:56;;;;;;;;;10.00;9.33;;;;;13.16;100.00;102257.97;5016926;28;45581;-72
2022/09/21 04:43:22;;;;;;;;;10.25;9.00;;;;;13.11;100.00;102247.25;5034565;28;45390;-72
2022/09/21 04:45:47;;;;;;;;;10.25;8.00;;;;;13.11;100.00;102255.22;5007573;28;45800;-72
2022/09/21 04:48:13;;;;;;;;;10.00;8.00;;;;;13.10;100.00;102263.09;5034641;28;45430;-76
2022/09/21 04:50:38;;;;;;;;;10.33;7.33;;;;;13.12;100.00;102258.75;5033959;28;59534;-72
2022/09/21 04:53:04;;;;;;;;;10.25;7.50;;;;;13.06;100.00;102256.84;5024991;28;45836;-74
2022/09/21 04:55:30;;;;;;;;;12.75;10.50;;;;;13.05;100.00;102257.72;5006808;28;46684;-73
2022/09/21 04:57:55;;;;;;;;;14.50;10.75;;;;;13.08;100.00;102270.13;5026129;28;45577;-72
2022/09/21 05:00:21;;;;;;;;;10.25;9.75;;;;;13.05;100.00;102263.03;5022547;28;59445;-72
2022/09/21 05:02:46;;;;;;;;;12.50;10.50;;;;;13.08;100.00;102265.72;5027137;28;45617;-74
2022/09/21 05:05:12;;;;;;;;;13.50;11.75;;;;;13.05;100.00;102259.47;5021197;28;45587;-72
2022/09/21 05:07:37;;;;;;;;;11.50;9.00;;;;;13.09;100.00;102269.28;5020381;28;45460;-73
2022/09/21 05:10:03;;;;;;;;;10.75;9.50;;;;;13.08;100.00;102263.06;5027872;28;61877;-73
2022/09/21 05:12:32;;;;;;;;;11.00;9.00;;;;;13.05;100.00;102256.81;5024596;28;45566;-73
2022/09/21 05:14:58;;;;;;;;;12.25;9.50;;;;;13.07;100.00;102258.63;5007846;28;45528;-76
2022/09/21 05:17:23;;;;;;;;;10.75;9.25;;;;;13.04;100.00;102262.97;5014883;28;45419;-72
2022/09/21 05:19:49;;;;;;;;;14.50;11.00;;;;;13.03;100.00;102266.47;5035262;28;45619;-71
2022/09/21 05:22:15;;;;;;;;;11.00;11.00;;;;;13.03;100.00;102270.03;5036747;28;45637;-73
2022/09/21 05:24:40;;;;;;;;;11.00;11.00;;;;;13.01;100.00;102271.75;5028507;28;46474;-73
2022/09/21 05:27:06;;;;;;;;;13.50;12.25;;;;;13.00;100.00;102269.97;5004140;28;46058;-71
2022/09/21 05:29:31;;;;;;;;;10.50;10.25;;;;;13.01;100.00;102268.22;5036640;28;47496;-70
2022/09/21 05:32:02;;;;;;;;;12.75;11.00;;;;;13.01;100.00;102258.50;5036511;28;45555;-70
2022/09/21 05:34:33;;;;;;;;;11.00;10.00;;;;;13.07;100.00;102263.94;5036496;28;45826;-70
2022/09/21 05:37:21;;;;;;;;;11.25;10.25;;;;;13.08;100.00;102271.03;5031855;28;45482;-71
2022/09/21 05:39:47;;;;;;;;;10.25;9.25;;;;;13.05;100.00;102260.38;5012913;28;46207;-70
2022/09/21 05:42:12;;;;;;;;;11.25;11.25;;;;;13.09;100.00;102264.84;5030325;28;45408;-70
2022/09/21 05:44:38;;;;;;;;;6.50;6.50;;;;;13.06;100.00;102251.56;5036735;28;46764;-69
2022/09/21 05:47:22;;;;;;;;;10.25;9.00;;;;;13.09;100.00;102266.63;5033130;28;45495;-70
2022/09/21 05:49:53;;;;;;;;;10.25;7.00;;;;;13.09;100.00;102264.84;5007710;28;45569;-71
2022/09/21 05:52:51;;;;;;;;;11.00;10.50;;;;;13.06;100.00;102256.84;5029032;28;45556;-71
2022/09/21 05:55:53;;;;;;;;;6.25;5.00;;;;;13.07;100.00;102257.75;5032546;28;45906;-72
2022/09/21 05:58:18;;;;;;;;;10.00;7.50;;;;;13.06;100.00;102267.47;5033463;28;45385;-71
2022/09/21 06:01:18;;;;;;;;;13.25;10.75;;;;;13.06;100.00;102261.25;5032612;28;45357;-71
2022/09/21 06:03:47;;;;;;;;;10.00;7.00;;;;;13.04;100.00;102257.66;5015034;28;45493;-71
2022/09/21 06:06:12;;;;;;;;;8.75;7.00;;;;;13.01;100.00;102245.25;5030089;28;46270;-71
2022/09/21 06:08:38;;;;;;;;;21.50;17.50;;;;;13.01;100.00;102255.84;5010323;28;67042;-70
2022/09/21 06:11:03;;;;;;;;;20.00;12.00;;;;;13.03;100.00;102261.19;5022180;28;57646;-69
2022/09/21 06:13:29;;;;;;;;;16.75;13.00;;;;;12.99;100.00;102254.88;5012978;28;45349;-69
2022/09/21 06:15:54;;;;;;;;;12.00;10.25;;;;;13.03;100.00;102269.13;5032008;28;47619;-70
2022/09/21 06:18:19;;;;;;;;;14.00;9.75;;;;;13.02;100.00;102264.69;5032330;28;45475;-70
2022/09/21 06:20:45;;;;;;;;;12.50;10.25;;;;;13.01;100.00;102269.09;5010166;28;61065;-72
2022/09/21 06:23:11;;;;;;;;;10.00;8.00;;;;;13.05;100.00;102272.72;5029213;28;45437;-69
2022/09/21 06:25:37;;;;;;;;;10.25;9.75;;;;;13.05;100.00;102267.44;5020294;28;46951;-69
2022/09/21 06:28:04;;;;;;;;;10.00;8.75;;;;;13.10;100.00;102284.31;5028878;28;45570;-70
2022/09/21 06:30:33;;;;;;;;;10.75;6.75;;;;;13.11;100.00;102288.78;5157021;22;46854;-69
2022/09/21 06:33:00;;;;;;;;;10.25;9.00;;;;;13.08;100.00;102279.00;5072613;28;45487;-69
2022/09/21 06:35:26;;;;;;;;;12.75;10.75;;;;;13.10;100.00;102274.63;5070531;28;46819;-69
2022/09/21 06:37:51;;;;;;;;;16.00;11.00;;;;;13.15;100.00;102273.81;5065841;28;45344;-69
2022/09/21 06:40:16;;;;;;;;;12.25;10.25;;;;;13.16;100.00;102275.63;5055031;28;58580;-69
2022/09/21 06:42:42;;;;;;;;;8.00;7.00;;;;;13.22;100.00;102273.16;5072641;28;55644;-69
2022/09/21 06:45:08;;;;;;;;;10.25;9.50;;;;;13.22;100.00;102278.47;5061828;28;64244;-68
2022/09/21 06:47:33;;;;;;;;;12.00;9.00;;;;;13.26;100.00;102275.00;5068362;28;45443;-68
2022/09/21 06:49:58;;;;;;;;;11.75;9.50;;;;;13.29;100.00;102281.28;5076069;28;57341;-67
2022/09/21 06:52:24;;;;;;;;;10.00;10.00;;;;;13.33;100.00;102276.97;5065407;28;59001;-68
2022/09/21 06:54:49;;;;;;;;;17.00;9.75;;;;;13.38;100.00;102285.91;5066337;28;46403;-67
2022/09/21 06:57:14;;;;;;;;;10.75;10.25;;;;;13.44;100.00;102279.84;5073272;28;45460;-68
2022/09/21 06:59:40;;;;;;;;;9.75;9.50;;;;;13.46;100.00;102284.31;5071737;28;58461;-68
2022/09/21 07:02:05;;;;;;;;;8.50;8.50;;;;;13.49;100.00;102280.84;5074139;28;45684;-68
2022/09/21 07:04:31;;;;;;;;;12.00;8.75;;;;;13.48;100.00;102279.97;5071373;28;46591;-69
2022/09/21 07:06:56;;;;;;;;;10.25;9.00;;;;;13.54;100.00;102285.41;5065759;28;57728;-68
2022/09/21 07:09:21;;;;;;;;;12.25;11.00;;;;;13.57;100.00;102287.19;5057096;28;46069;-68
2022/09/21 07:11:47;;;;;;;;;10.75;9.50;;;;;13.62;100.00;102282.91;5073396;28;47251;-68
2022/09/21 07:14:13;;;;;;;;;14.50;12.00;;;;;13.67;100.00;102280.34;5067867;28;46419;-68
2022/09/21 07:16:39;;;;;;;;;11.00;9.50;;;;;13.72;100.00;102276.91;5069948;28;45521;-68
2022/09/21 07:19:05;;;;;;;;;12.00;7.50;;;;;13.77;100.00;102274.38;5074314;28;45557;-69
2022/09/21 07:21:30;;;;;;;;;10.00;8.33;;;;;13.82;100.00;102278.91;5072366;28;45570;-68
2022/09/21 07:23:58;;;;;;;;;9.50;8.25;;;;;13.85;100.00;102270.13;5070836;28;65457;-69
2022/09/21 07:26:24;;;;;;;;;14.50;11.00;;;;;13.86;100.00;102269.25;5073225;28;45510;-69
2022/09/21 07:28:49;;;;;;;;;8.00;7.67;;;;;13.92;100.00;102274.69;5072827;28;49343;-68
2022/09/21 07:31:15;;;;;;;;;17.00;13.50;;;;;13.95;100.00;102268.53;5072635;28;45518;-68
2022/09/21 07:33:42;;;;;;;;;14.67;10.67;;;;;14.02;100.00;102271.34;5066443;28;46338;-68
2022/09/21 07:36:11;;;;;;;;;9.67;8.67;;;;;14.03;100.00;102265.19;5053500;28;45440;-69
2022/09/21 07:38:39;;;;;;;;;11.33;7.00;;;;;14.11;100.00;102271.56;5054303;28;45524;-68
2022/09/21 07:41:06;;;;;;;;;15.75;9.25;;;;;14.15;100.00;102268.06;5065583;28;45624;-68
2022/09/21 07:43:32;;;;;;;;;14.50;8.50;;;;;14.16;100.00;102253.00;5064841;28;45572;-69
2022/09/21 07:45:57;;;;;;;;;11.50;8.75;;;;;14.21;100.00;102259.31;5063463;28;46402;-69
2022/09/21 07:48:23;;;;;;;;;11.33;9.33;;;;;14.28;100.00;102261.25;5053858;28;45449;-72
2022/09/21 07:50:49;;;;;;;;;10.25;9.00;;;;;14.31;100.00;102258.63;5071844;28;45628;-71
2022/09/21 07:53:15;;;;;;;;;12.00;12.00;;;;;14.32;100.00;102256.84;5072405;28;46424;-69
2022/09/21 07:55:40;;;;;;;;;13.33;10.00;;;;;14.34;100.00;102249.81;5071947;28;45382;-69
2022/09/21 08:00:50;;;;;;;;;10.33;8.67;;;;;14.38;100.00;102249.00;5068982;28;45296;-69
2022/09/21 08:03:15;;;;;;;;;13.25;8.75;;;;;14.41;100.00;102252.59;5071138;28;45605;-69
2022/09/21 08:05:40;;;;;;;;;9.67;8.67;;;;;14.45;100.00;102250.91;5063867;28;48929;-69
2022/09/21 08:08:06;;;;;;;;;14.50;9.00;;;;;14.50;100.00;102259.00;5070166;28;62016;-69
2022/09/21 08:10:32;;;;;;;;;12.67;10.67;;;;;14.52;100.00;102247.50;5067778;28;45374;-69
2022/09/21 08:12:58;;;;;;;;;9.00;9.00;;;;;14.57;100.00;102258.22;5057080;28;46033;-71
2022/09/21 08:15:23;;;;;;;;;10.33;10.33;;;;;14.58;100.00;102244.97;5062238;28;48524;-70
2022/09/21 08:17:50;;;;;;;;;13.33;9.67;;;;;14.61;100.00;102246.78;5074875;28;45383;-69
2022/09/21 08:20:16;;;;;;;;;20.33;10.67;;;;;14.68;100.00;102259.31;5073573;28;45714;-71
2022/09/21 08:22:41;;;;;;;;;17.25;11.50;;;;;14.70;100.00;102256.66;5054387;28;46094;-71
2022/09/21 08:25:07;;;;;;;;;10.00;9.00;;;;;14.73;100.00;102257.63;5059733;28;65832;-70
2022/09/21 08:27:32;;;;;;;;;10.33;9.00;;;;;14.80;100.00;102262.16;5058240;28;45917;-69
2022/09/21 08:29:57;;;;;;;;;10.00;10.00;;;;;14.81;100.00;102256.00;5070646;28;45550;-70
2022/09/21 08:32:23;;;;;;;;;12.67;9.00;;;;;14.87;100.00;102255.19;5073611;28;59530;-69
2022/09/21 08:34:48;;;;;;;;;10.33;10.00;;;;;14.93;100.00;102260.63;5056636;28;45583;-69
2022/09/21 08:37:14;;;;;;;;;7.00;7.00;;;;;14.97;100.00;102250.91;5069303;28;45493;-70
2022/09/21 08:39:40;;;;;;;;;9.67;8.67;;;;;15.01;100.00;102260.72;5066675;28;45502;-70
2022/09/21 08:42:20;;;;;;;;;14.67;11.00;;;;;15.05;100.00;102255.47;5064634;28;45792;-69
2022/09/21 08:44:59;;;;;;;;;11.33;10.33;;;;;15.03;100.00;102254.56;5070583;28;45705;-70
2022/09/21 08:47:39;;;;;;;;;14.00;9.67;;;;;15.08;100.00;102252.88;5058352;28;47073;-70
2022/09/21 08:50:18;;;;;;;;;12.33;8.00;;;;;15.16;100.00;102248.56;5058396;28;45308;-69
2022/09/21 08:52:44;;;;;;;;;12.00;11.67;;;;;15.22;100.00;102253.06;5053470;28;46699;-69
2022/09/21 08:55:16;;;;;;;;;9.67;9.33;;;;;15.28;100.00;102257.59;5076110;28;45785;-68
2022/09/21 08:57:42;;;;;;;;;10.33;10.00;;;;;15.30;100.00;102247.88;5058540;28;45477;-69
2022/09/21 09:00:13;;;;;;;;;16.00;11.67;;;;;15.36;100.00;102245.28;5076094;28;45460;-69
2022/09/21 09:03:03;;;;;;;;;15.33;11.67;;;;;15.46;100.00;102253.44;5066856;28;46478;-68
2022/09/21 09:06:03;;;;;;;;;13.33;11.00;;;;;15.54;100.00;102260.59;5073697;28;45211;-69
2022/09/21 09:08:52;;;;;;;;;14.00;10.00;;;;;15.61;100.00;102262.50;5077071;28;45434;-68
2022/09/21 09:11:32;;;;;;;;;8.00;6.33;;;;;15.67;100.00;102266.16;5073226;28;45634;-70
2022/09/21 09:14:25;;;;;;;;;9.67;8.33;;;;;15.73;100.00;102259.13;5078748;28;46062;-69
2022/09/21 09:17:14;;;;;;;;;6.00;4.00;;;;;15.81;100.00;102262.75;5041348;28;45486;-68
2022/09/21 09:19:45;;;;;;;;;13.00;10.00;;;;;15.87;100.00;102261.09;5072922;28;45450;-70
2022/09/21 09:22:15;;;;;;;;;11.67;8.00;;;;;15.91;100.00;102262.91;5076149;28;45358;-68
2022/09/21 09:24:47;;;;;;;;;6.67;6.67;;;;;15.91;100.00;102244.25;5057740;28;47745;-70
2022/09/21 09:27:37;;;;;;;;;9.00;6.33;;;;;16.01;100.00;102250.59;5076712;28;45397;-68
2022/09/21 09:30:17;;;;;;;;;7.33;6.33;;;;;16.06;100.00;102242.66;5044112;28;45438;-69
2022/09/21 09:33:04;;;;;;;;;9.67;7.00;;;;;16.10;100.00;102237.38;5074697;28;45585;-69
2022/09/21 09:35:34;;;;;;;;;6.67;6.67;;;;;16.18;100.00;102246.31;5077092;28;45564;-70
2022/09/21 09:38:10;;;;;;;;;9.33;8.00;;;;;16.28;100.00;102246.44;5072775;28;45494;-69
2022/09/21 09:40:54;;;;;;;;;9.00;5.67;;;;;16.36;100.00;102250.06;5070382;28;45533;-69
2022/09/21 09:43:32;;;;;;;;;6.33;5.00;;;;;16.41;100.00;102249.25;5078396;28;45544;-69
2022/09/21 09:46:15;;;;;;;;;8.00;8.00;;;;;16.48;100.00;102242.19;5076671;28;45492;-70
2022/09/21 09:49:18;;;;;;;;;6.67;5.00;;;;;16.54;100.00;102239.56;5052819;28;45522;-69
2022/09/21 09:51:44;;;;;;;;;27.67;15.00;;;;;16.60;100.00;102241.41;5067042;28;45463;-69
2022/09/21 09:54:13;;;;;;;;;29.33;14.00;;;;;16.65;100.00;102248.56;5074649;27;45478;-69
2022/09/21 09:56:39;;;;;;;;;15.00;10.33;;;;;16.71;100.00;102245.06;5055056;27;46750;-68
2022/09/21 09:59:11;;;;;;;;;5.67;5.67;;;;;16.74;100.00;102238.00;5077959;27;45299;-68
2022/09/21 10:01:42;;;;;;;;;10.00;7.00;;;;;16.83;100.00;102247.88;5072509;28;45407;-69
2022/09/21 10:04:09;;;;;;;;;4.00;4.00;;;;;16.88;100.00;102240.75;5067700;28;46294;-69
2022/09/21 10:06:35;;;;;;;;;5.00;5.00;;;;;16.95;100.00;102241.72;5074191;27;47505;-69
2022/09/21 10:09:18;;;;;;;;;10.33;6.67;;;;;16.98;100.00;102231.94;5075957;28;45402;-69
2022/09/21 10:11:43;;;;;;;;;6.33;6.33;;;;;17.03;100.00;102239.97;5074573;28;45368;-70
2022/09/21 10:14:11;;;;;;;;;7.67;5.67;;;;;17.11;100.00;102237.38;5052159;28;64099;-72
2022/09/21 10:16:40;;;;;;;;;6.00;6.00;;;;;17.17;100.00;102232.97;5069281;28;46569;-69
2022/09/21 10:19:14;;;;;;;;;5.67;4.00;;;;;17.23;100.00;102235.66;5050415;28;45347;-69
2022/09/21 10:21:45;;;;;;;;;4.00;4.00;;;;;17.31;100.00;102227.72;5058284;28;45295;-71
2022/09/21 10:24:21;;;;;;;;;7.33;3.00;;;;;17.36;100.00;102236.63;5074314;28;45465;-70
2022/09/21 10:26:49;;;;;;;;;4.00;4.00;;;;;17.36;100.00;102219.72;5071677;28;46467;-69
2022/09/21 10:29:29;;;;;;;;;5.67;4.33;;;;;17.45;100.00;102223.31;5054160;28;46176;-69
2022/09/21 10:32:01;;;;;;;;;4.67;4.67;;;;;17.54;100.00;102223.38;5066196;28;45427;-70
2022/09/21 10:34:31;;;;;;;;;4.00;4.00;;;;;17.62;100.00;102227.84;5076886;28;45472;-70
2022/09/21 10:37:02;;;;;;;;;3.00;3.00;;;;;17.70;100.00;102228.78;5055560;28;46120;-70
2022/09/21 10:39:31;;;;;;;;;6.33;3.33;;;;;17.80;100.00;102214.63;5076702;28;45359;-70
2022/09/21 10:42:03;;;;;;;;;4.00;3.00;;;;;17.92;100.00;102225.34;5078503;27;45534;-74
2022/09/21 10:44:36;;;;;;;;;3.00;3.00;;;;;18.01;100.00;102219.13;5060418;28;45441;-72
2022/09/21 10:47:37;;;;;;;;;8.00;6.33;;;;;18.12;100.00;102214.69;5049578;28;46569;-71
2022/09/21 10:50:07;;;;;;;;;6.00;5.00;;;;;18.21;100.00;102217.38;5066984;28;45419;-69
2022/09/21 10:52:37;;;;;;;;;4.00;4.00;;;;;18.25;100.00;102213.81;5053613;28;45265;-68
2022/09/21 10:55:04;;;;;;;;;3.33;3.33;;;;;18.35;100.00;102214.72;5071958;28;45619;-69
2022/09/21 10:57:31;;;;;;;;;6.67;4.00;;;;;18.48;100.00;102218.28;5054480;28;47861;-72
2022/09/21 10:59:56;;;;;;;;;4.33;2.33;;;;;18.56;100.00;102211.16;5058687;28;45366;-70
2022/09/21 11:02:37;;;;;;;;;2.00;2.00;;;;;18.64;100.00;102205.81;5074131;28;46939;-70
2022/09/21 11:05:10;;;;;;;;;4.00;3.00;;;;;18.74;100.00;102205.84;5062210;28;45367;-69
2022/09/21 11:07:45;;;;;;;;;2.33;2.33;;;;;18.86;100.00;102201.38;5072160;28;45897;-69
2022/09/21 11:10:32;;;;;;;;;2.33;2.33;;;;;18.87;100.00;102200.50;5074807;28;45498;-69
2022/09/21 11:13:23;;;;;;;;;3.67;1.67;;;;;18.86;100.00;102196.03;5056958;28;45437;-72
2022/09/21 11:15:55;;;;;;;;;1.67;1.67;;;;;18.84;100.00;102202.25;5065873;28;45362;-69
2022/09/21 11:18:29;;;;;;;;;2.33;2.00;;;;;18.81;100.00;102198.72;5064404;28;47094;-70
2022/09/21 11:21:02;;;;;;;;;6.00;2.33;;;;;18.80;99.93;102197.81;5057298;27;45482;-72
2022/09/21 11:23:46;;;;;;;;;3.67;3.00;;;;;18.80;99.68;102195.16;5051795;28;45800;-70
2022/09/21 11:26:26;;;;;;;;;3.00;3.00;;;;;18.86;99.26;102190.69;5071135;28;45501;-69